createdAt,value
2018-02-12T00:02:02.125Z,90.70
2018-02-12T00:04:30.533Z,90.60
2018-02-12T00:06:58.424Z,90.60
2018-02-12T00:09:26.059Z,90.60
2018-02-12T00:11:53.696Z,90.50
2018-02-12T00:14:22.103Z,90.50
2018-02-12T00:16:50.365Z,90.50
2018-02-12T00:19:18.067Z,90.40
2018-02-12T00:21:45.755Z,90.40
2018-02-12T00:24:13.417Z,90.50
2018-02-12T00:26:41.058Z,90.40
2018-02-12T00:29:08.678Z,90.20
2018-02-12T00:31:36.687Z,90.30
2018-02-12T00:34:04.404Z,90.30
2018-02-12T00:36:32.043Z,90.20
2018-02-12T00:39:00.419Z,90.20
2018-02-12T00:41:28.869Z,90.20
2018-02-12T00:43:56.497Z,90.20
2018-02-12T00:46:24.512Z,90.30
2018-02-12T00:48:53.506Z,90.30
2018-02-12T00:51:21.165Z,90.10
2018-02-12T00:53:48.787Z,90.40
2018-02-12T00:56:16.389Z,90.50
2018-02-12T00:58:44.061Z,90.90
2018-02-12T01:01:12.519Z,90.90
2018-02-12T01:03:40.177Z,90.60
2018-02-12T01:06:07.847Z,90.60
2018-02-12T01:08:35.629Z,91.00
2018-02-12T01:11:04.036Z,90.70
2018-02-12T01:13:31.743Z,90.70
2018-02-12T01:15:59.367Z,90.70
2018-02-12T01:18:27.031Z,90.70
2018-02-12T01:20:54.655Z,90.70
2018-02-12T01:23:23.071Z,90.70
2018-02-12T01:25:50.693Z,90.60
2018-02-12T01:28:19.415Z,90.70
2018-02-12T01:30:47.061Z,90.70
2018-02-12T01:33:14.711Z,90.60
2018-02-12T01:35:43.113Z,90.70
2018-02-12T01:38:10.741Z,90.70
2018-02-12T01:40:39.209Z,90.50
2018-02-12T01:43:07.738Z,90.50
2018-02-12T01:45:35.405Z,90.30
2018-02-12T01:48:03.029Z,90.60
2018-02-12T01:50:31.404Z,90.70
2018-02-12T01:52:59.830Z,90.70
2018-02-12T01:55:27.457Z,90.70
2018-02-12T01:57:55.879Z,90.80
2018-02-12T02:00:23.518Z,90.80
2018-02-12T02:02:51.174Z,90.80
2018-02-12T02:05:18.819Z,90.70
2018-02-12T02:07:46.451Z,90.70
2018-02-12T02:10:14.044Z,90.80
2018-02-12T02:12:41.666Z,90.70
2018-02-12T02:15:09.301Z,90.80
2018-02-12T02:17:36.911Z,90.70
2018-02-12T02:20:04.537Z,90.80
2018-02-12T02:22:32.149Z,90.80
2018-02-12T02:24:59.763Z,90.80
2018-02-12T02:27:27.394Z,90.70
2018-02-12T02:29:55.059Z,90.80
2018-02-12T02:32:22.696Z,90.90
2018-02-12T02:34:50.344Z,90.80
2018-02-12T02:37:18.740Z,90.90
2018-02-12T02:39:46.421Z,90.90
2018-02-12T02:42:14.054Z,91.00
2018-02-12T02:44:41.678Z,91.00
2018-02-12T02:47:09.260Z,91.00
2018-02-12T02:49:37.655Z,91.40
2018-02-12T02:52:05.302Z,91.10
2018-02-12T02:54:33.799Z,91.10
2018-02-12T02:57:01.412Z,91.00
2018-02-12T02:59:29.101Z,91.00
2018-02-12T03:01:57.531Z,90.90
2018-02-12T03:04:25.185Z,90.90
2018-02-12T03:06:52.883Z,90.90
2018-02-12T03:09:20.840Z,91.00
2018-02-12T03:11:48.453Z,90.90
2018-02-12T03:14:16.101Z,91.00
2018-02-12T03:16:44.491Z,91.10
2018-02-12T03:19:12.109Z,91.00
2018-02-12T03:21:39.816Z,91.00
2018-02-12T03:24:07.575Z,91.00
2018-02-12T03:26:35.257Z,91.00
2018-02-12T03:29:02.856Z,91.00
2018-02-12T03:31:30.827Z,91.00
2018-02-12T03:33:59.249Z,91.00
2018-02-12T03:36:26.850Z,90.90
2018-02-12T03:38:54.474Z,90.90
2018-02-12T03:41:22.085Z,91.00
2018-02-12T03:43:49.697Z,90.90
2018-02-12T03:46:17.310Z,90.80
2018-02-12T03:48:44.982Z,90.80
2018-02-12T03:51:13.366Z,90.50
2018-02-12T03:53:41.834Z,90.70
2018-02-12T03:56:09.443Z,90.70
2018-02-12T03:58:37.062Z,90.70
2018-02-12T04:01:05.490Z,90.60
2018-02-12T04:03:33.095Z,90.60
2018-02-12T04:06:00.711Z,90.60
2018-02-12T04:08:28.361Z,90.60
2018-02-12T04:10:56.108Z,90.50
2018-02-12T04:13:23.986Z,90.60
2018-02-12T04:15:51.740Z,90.50
2018-02-12T04:18:19.328Z,90.40
2018-02-12T04:20:46.967Z,90.40
2018-02-12T04:23:14.573Z,90.30
2018-02-12T04:25:42.306Z,90.40
2018-02-12T04:28:09.917Z,90.40
2018-02-12T04:30:37.532Z,90.40
2018-02-12T04:33:05.143Z,90.40
2018-02-12T04:35:33.862Z,90.40
2018-02-12T04:38:01.453Z,90.30
2018-02-12T04:40:29.048Z,90.40
2018-02-12T04:42:57.442Z,90.40
2018-02-12T04:45:25.807Z,90.40
2018-02-12T04:47:54.281Z,90.20
2018-02-12T04:50:21.894Z,90.20
2018-02-12T04:52:49.517Z,90.20
2018-02-12T04:55:17.890Z,90.10
2018-02-12T04:57:46.272Z,90.00
2018-02-12T05:00:15.021Z,90.00
2018-02-12T05:02:42.649Z,90.00
2018-02-12T05:05:10.253Z,89.30
2018-02-12T05:07:38.204Z,89.40
2018-02-12T05:10:05.812Z,88.90
2018-02-12T05:12:34.178Z,88.90
2018-02-12T05:15:02.603Z,88.80
2018-02-12T05:17:30.187Z,88.70
2018-02-12T05:19:57.821Z,88.40
2018-02-12T05:22:25.489Z,88.10
2018-02-12T05:24:53.112Z,88.00
2018-02-12T05:27:21.567Z,85.60
2018-02-12T05:29:49.198Z,85.60
2018-02-12T05:32:17.231Z,85.70
2018-02-12T05:34:46.033Z,85.20
2018-02-12T05:37:13.629Z,85.30
2018-02-12T05:39:41.236Z,85.50
2018-02-12T05:42:08.876Z,85.20
2018-02-12T05:44:36.478Z,85.60
2018-02-12T05:47:04.163Z,86.00
2018-02-12T05:49:31.794Z,86.60
2018-02-12T05:51:59.727Z,87.20
2018-02-12T05:54:28.104Z,88.10
2018-02-12T05:56:55.728Z,88.10
2018-02-12T05:59:23.357Z,88.80
2018-02-12T06:01:50.953Z,89.10
2018-02-12T06:04:18.576Z,89.60
2018-02-12T06:06:46.188Z,89.40
2018-02-12T06:09:13.842Z,89.80
2018-02-12T06:11:41.478Z,89.80
2018-02-12T06:14:09.076Z,89.90
2018-02-12T06:16:36.677Z,89.80
2018-02-12T06:19:04.273Z,89.80
2018-02-12T06:21:31.891Z,90.00
2018-02-12T06:23:59.595Z,90.00
2018-02-12T06:26:27.196Z,89.90
2018-02-12T06:28:55.604Z,89.80
2018-02-12T06:31:23.271Z,89.80
2018-02-12T06:33:50.880Z,89.80
2018-02-12T06:36:18.842Z,88.90
2018-02-12T06:38:46.561Z,88.90
2018-02-12T06:41:14.221Z,88.70
2018-02-12T06:43:41.951Z,88.60
2018-02-12T06:46:09.626Z,88.50
2018-02-12T06:48:37.380Z,88.30
2018-02-12T06:51:06.095Z,87.90
2018-02-12T06:53:33.800Z,87.90
2018-02-12T06:56:01.424Z,88.00
2018-02-12T06:58:29.061Z,87.10
2018-02-12T07:00:57.440Z,86.70
2018-02-12T07:03:25.855Z,86.50
2018-02-12T07:05:54.255Z,85.90
2018-02-12T07:08:21.874Z,85.90
2018-02-12T07:10:49.485Z,84.90
2018-02-12T07:13:17.104Z,84.40
2018-02-12T07:15:44.863Z,84.50
2018-02-12T07:18:12.509Z,84.40
2018-02-12T07:20:40.147Z,84.40
2018-02-12T07:23:08.530Z,84.40
2018-02-12T07:25:36.975Z,84.10
2018-02-12T07:28:05.367Z,83.20
2018-02-12T07:30:33.001Z,84.10
2018-02-12T07:33:00.703Z,83.20
2018-02-12T07:35:29.133Z,82.60
2018-02-12T07:37:56.752Z,82.60
2018-02-12T07:40:25.258Z,82.10
2018-02-12T07:42:52.904Z,82.10
2018-02-12T07:45:20.690Z,82.10
2018-02-12T07:47:48.337Z,81.60
2018-02-12T07:50:16.030Z,81.50
2018-02-12T07:52:43.641Z,81.20
2018-02-12T07:55:12.041Z,81.20
2018-02-12T07:57:39.724Z,81.20
2018-02-12T08:00:07.817Z,81.40
2018-02-12T08:02:35.452Z,81.40
2018-02-12T08:05:03.087Z,80.70
2018-02-12T08:07:30.754Z,80.10
2018-02-12T08:09:58.411Z,79.30
2018-02-12T08:12:26.857Z,78.70
2018-02-12T08:14:54.475Z,78.50
2018-02-12T08:17:22.471Z,78.80
2018-02-12T08:19:50.087Z,78.10
2018-02-12T08:22:17.717Z,77.60
2018-02-12T08:24:45.362Z,76.40
2018-02-12T08:27:13.007Z,76.60
2018-02-12T08:29:40.635Z,74.70
2018-02-12T08:32:08.311Z,75.80
2018-02-12T08:34:36.040Z,74.70
2018-02-12T08:37:04.441Z,74.80
2018-02-12T08:39:32.126Z,74.80
2018-02-12T08:41:59.897Z,74.70
2018-02-12T08:44:28.360Z,74.40
2018-02-12T08:46:56.005Z,74.40
2018-02-12T08:49:23.633Z,74.70
2018-02-12T08:51:52.117Z,74.60
2018-02-12T08:54:20.536Z,74.80
2018-02-12T08:56:48.313Z,74.80
2018-02-12T08:59:15.937Z,75.20
2018-02-12T09:01:43.591Z,74.10
2018-02-12T09:04:12.002Z,73.50
2018-02-12T09:06:39.613Z,73.50
2018-02-12T09:09:07.223Z,73.00
2018-02-12T09:11:34.866Z,71.90
2018-02-12T09:14:02.537Z,71.80
2018-02-12T09:16:30.470Z,72.20
2018-02-12T09:18:58.880Z,71.00
2018-02-12T09:21:26.541Z,70.80
2018-02-12T09:23:54.201Z,70.90
2018-02-12T09:26:22.110Z,69.50
2018-02-12T09:28:49.819Z,68.20
2018-02-12T09:31:18.223Z,65.50
2018-02-12T09:33:45.846Z,65.50
2018-02-12T09:36:14.302Z,65.30
2018-02-12T09:38:41.924Z,65.30
2018-02-12T09:41:09.548Z,63.60
2018-02-12T09:43:37.991Z,61.20
2018-02-12T09:46:05.882Z,61.20
2018-02-12T09:48:33.502Z,59.40
2018-02-12T09:51:01.098Z,56.60
2018-02-12T09:53:28.747Z,56.50
2018-02-12T09:55:56.482Z,55.00
2018-02-12T09:58:24.092Z,53.30
2018-02-12T10:00:51.725Z,52.30
2018-02-12T10:03:19.458Z,50.20
2018-02-12T10:05:47.043Z,49.00
2018-02-12T10:08:15.453Z,48.80
2018-02-12T10:10:43.096Z,48.80
2018-02-12T10:13:10.728Z,47.30
2018-02-12T10:15:38.378Z,48.70
2018-02-12T10:18:06.083Z,50.10
2018-02-12T10:20:33.663Z,52.00
2018-02-12T10:23:04.022Z,55.60
2018-02-12T10:25:31.788Z,56.70
2018-02-12T10:27:59.421Z,56.80
2018-02-12T10:30:27.963Z,59.60
2018-02-12T10:32:55.587Z,59.60
2018-02-12T10:35:23.300Z,60.80
2018-02-12T10:37:50.994Z,60.70
2018-02-12T10:40:19.360Z,62.40
2018-02-12T10:42:47.032Z,62.30
2018-02-12T10:45:15.517Z,61.90
2018-02-12T10:47:43.242Z,61.90
2018-02-12T10:50:10.856Z,60.40
2018-02-12T10:52:38.521Z,60.80
2018-02-12T10:55:06.137Z,59.00
2018-02-12T10:57:33.772Z,55.30
2018-02-12T11:00:01.455Z,51.80
2018-02-12T11:02:30.017Z,48.90
2018-02-12T11:04:57.644Z,47.00
2018-02-12T11:07:25.338Z,47.50
2018-02-12T11:09:52.982Z,44.70
2018-02-12T11:12:20.640Z,42.70
2018-02-12T11:14:48.240Z,41.00
2018-02-12T11:17:15.857Z,41.60
2018-02-12T11:19:43.488Z,40.90
2018-02-12T11:22:11.861Z,43.20
2018-02-12T11:24:40.337Z,43.30
2018-02-12T11:27:08.830Z,44.10
2018-02-12T11:29:37.251Z,42.70
2018-02-12T11:32:04.995Z,42.60
2018-02-12T11:34:32.600Z,41.20
2018-02-12T11:37:00.200Z,38.40
2018-02-12T11:39:28.599Z,38.60
2018-02-12T11:41:56.682Z,38.50
2018-02-12T11:44:25.145Z,42.90
2018-02-12T11:46:52.870Z,42.90
2018-02-12T11:49:21.266Z,44.60
2018-02-12T11:51:48.892Z,44.50
2018-02-12T11:54:16.560Z,44.70
2018-02-12T11:56:44.174Z,44.90
2018-02-12T11:59:11.953Z,45.30
2018-02-12T12:01:39.512Z,44.00
2018-02-12T12:04:07.188Z,43.40
2018-02-12T12:06:34.891Z,45.90
2018-02-12T12:09:03.295Z,47.90
2018-02-12T12:11:30.896Z,47.80
2018-02-12T12:13:58.578Z,45.60
2018-02-12T12:16:26.234Z,43.70
2018-02-12T12:18:53.983Z,41.30
2018-02-12T12:21:21.606Z,38.00
2018-02-12T12:23:49.224Z,37.80
2018-02-12T12:26:17.583Z,40.40
2018-02-12T12:28:45.212Z,40.20
2018-02-12T12:31:12.903Z,41.40
2018-02-12T12:33:40.601Z,43.00
2018-02-12T12:36:08.984Z,47.20
2018-02-12T12:38:36.768Z,47.10
2018-02-12T12:41:04.761Z,48.00
2018-02-12T12:43:32.372Z,46.60
2018-02-12T12:46:00.013Z,49.30
2018-02-12T12:48:28.399Z,52.90
2018-02-12T12:50:56.824Z,51.90
2018-02-12T12:53:24.425Z,51.90
2018-02-12T12:55:52.073Z,52.20
2018-02-12T12:58:19.709Z,52.20
2018-02-12T13:00:47.378Z,52.30
2018-02-12T13:03:15.019Z,52.50
2018-02-12T13:05:42.671Z,53.00
2018-02-12T13:08:10.295Z,54.00
2018-02-12T13:10:37.911Z,54.50
2018-02-12T13:13:05.540Z,54.80
2018-02-12T13:15:33.199Z,54.90
2018-02-12T13:18:01.540Z,57.20
2018-02-12T13:20:29.251Z,57.20
2018-02-12T13:22:56.992Z,58.40
2018-02-12T13:25:24.713Z,59.80
2018-02-12T13:27:52.364Z,60.20
2018-02-12T13:30:20.067Z,59.60
2018-02-12T13:32:47.723Z,59.20
2018-02-12T13:35:15.433Z,57.90
2018-02-12T13:37:43.086Z,56.30
2018-02-12T13:40:11.130Z,55.30
2018-02-12T13:42:39.556Z,54.70
2018-02-12T13:45:07.304Z,54.70
2018-02-12T13:47:35.002Z,54.40
2018-02-12T13:50:03.399Z,56.90
2018-02-12T13:52:31.046Z,56.30
2018-02-12T13:54:58.652Z,56.20
2018-02-12T13:57:27.073Z,57.10
2018-02-12T13:59:54.694Z,57.20
2018-02-12T14:02:23.072Z,70.10
2018-02-12T14:04:50.740Z,70.10
2018-02-12T14:07:18.689Z,68.20
2018-02-12T14:09:47.085Z,66.10
2018-02-12T14:12:14.682Z,66.00
2018-02-12T14:14:42.344Z,65.50
2018-02-12T14:17:10.758Z,63.00
2018-02-12T14:19:38.607Z,62.90
2018-02-12T14:22:06.228Z,61.90
2018-02-12T14:24:33.861Z,61.50
2018-02-12T14:27:02.258Z,59.70
2018-02-12T14:29:30.399Z,59.70
2018-02-12T14:31:58.781Z,60.20
2018-02-12T14:34:26.439Z,60.20
2018-02-12T14:36:54.179Z,60.90
2018-02-12T14:39:21.808Z,61.80
2018-02-12T14:41:49.471Z,61.20
2018-02-12T14:44:17.125Z,61.50
2018-02-12T14:46:44.745Z,70.60
2018-02-12T14:49:12.415Z,73.90
2018-02-12T14:51:40.905Z,79.60
2018-02-12T14:54:09.320Z,80.80
2018-02-12T14:56:36.947Z,80.70
2018-02-12T14:59:05.327Z,79.90
2018-02-12T15:01:33.813Z,78.70
2018-02-12T15:04:01.419Z,79.40
2018-02-12T15:06:29.081Z,79.60
2018-02-12T15:08:56.714Z,80.20
2018-02-12T15:11:24.396Z,79.50
2018-02-12T15:13:52.024Z,79.60
2018-02-12T15:16:19.704Z,78.50
2018-02-12T15:18:47.396Z,77.80
2018-02-12T15:21:15.038Z,77.50
2018-02-12T15:23:42.764Z,76.80
2018-02-12T15:26:10.432Z,76.40
2018-02-12T15:28:38.091Z,75.70
2018-02-12T15:31:05.722Z,76.00
2018-02-12T15:33:33.345Z,76.40
2018-02-12T15:36:00.965Z,75.70
2018-02-12T15:38:29.565Z,75.10
2018-02-12T15:40:57.209Z,76.30
2018-02-12T15:43:25.581Z,74.80
2018-02-12T15:45:53.970Z,74.80
2018-02-12T15:48:21.648Z,74.80
2018-02-12T15:50:49.336Z,75.20
2018-02-12T15:53:17.208Z,75.10
2018-02-12T15:55:45.349Z,75.00
2018-02-12T15:58:12.987Z,74.20
2018-02-12T16:00:42.255Z,73.30
2018-02-12T16:03:09.964Z,73.30
2018-02-12T16:05:37.577Z,73.20
2018-02-12T16:08:05.208Z,73.20
2018-02-12T16:10:32.892Z,73.90
2018-02-12T16:13:00.496Z,74.60
2018-02-12T16:15:28.184Z,74.80
2018-02-12T16:17:56.237Z,77.90
2018-02-12T16:20:23.904Z,74.90
2018-02-12T16:22:51.561Z,73.30
2018-02-12T16:25:19.364Z,73.20
2018-02-12T16:27:47.052Z,74.20
2018-02-12T16:30:14.692Z,75.00
2018-02-12T16:32:42.368Z,75.10
2018-02-12T16:35:10.044Z,75.60
2018-02-12T16:37:38.455Z,76.60
2018-02-12T16:40:06.101Z,76.40
2018-02-12T16:42:33.866Z,77.70
2018-02-12T16:45:01.576Z,77.10
2018-02-12T16:47:29.256Z,76.70
2018-02-12T16:49:56.921Z,77.10
2018-02-12T16:52:24.560Z,76.70
2018-02-12T16:54:52.275Z,77.50
2018-02-12T16:57:20.697Z,77.90
2018-02-12T16:59:48.373Z,77.90
2018-02-12T17:02:16.114Z,78.20
2018-02-12T17:04:43.862Z,78.50
2018-02-12T17:07:11.763Z,78.60
2018-02-12T17:09:39.741Z,78.70
2018-02-12T17:12:07.394Z,78.90
2018-02-12T17:14:35.199Z,79.40
2018-02-12T17:17:04.191Z,79.60
2018-02-12T17:19:32.710Z,79.60
2018-02-12T17:22:00.436Z,79.40
2018-02-12T17:24:28.822Z,79.70
2018-02-12T17:26:56.428Z,79.70
2018-02-12T17:29:24.113Z,80.10
2018-02-12T17:31:51.800Z,79.70
2018-02-12T17:34:20.240Z,79.20
2018-02-12T17:36:47.852Z,79.20
2018-02-12T17:39:15.504Z,79.40
2018-02-12T17:41:43.930Z,79.40
2018-02-12T17:44:11.601Z,79.40
2018-02-12T17:46:39.338Z,79.40
2018-02-12T17:49:07.193Z,79.30
2018-02-12T17:51:35.009Z,79.30
2018-02-12T17:54:02.908Z,79.50
2018-02-12T17:56:30.610Z,80.00
2018-02-12T17:58:58.275Z,80.60
2018-02-12T18:01:25.954Z,80.00
2018-02-12T18:03:53.829Z,80.10
2018-02-12T18:06:21.719Z,80.10
2018-02-12T18:08:49.399Z,80.30
2018-02-12T18:11:17.067Z,80.00
2018-02-12T18:13:44.829Z,80.40
2018-02-12T18:16:12.544Z,80.30
2018-02-12T18:18:40.265Z,80.40
2018-02-12T18:21:07.889Z,80.10
2018-02-12T18:23:36.294Z,80.20
2018-02-12T18:26:04.002Z,80.20
2018-02-12T18:28:31.655Z,80.50
2018-02-12T18:30:59.361Z,80.40
2018-02-12T18:33:27.149Z,80.70
2018-02-12T18:35:55.620Z,81.40
2018-02-12T18:38:23.641Z,81.60
2018-02-12T18:40:51.285Z,82.00
2018-02-12T18:43:19.108Z,82.10
2018-02-12T18:45:46.899Z,82.10
2018-02-12T18:48:14.686Z,82.20
2018-02-12T18:50:42.505Z,81.90
2018-02-12T18:53:10.386Z,81.80
2018-02-12T18:55:38.331Z,82.10
2018-02-12T18:58:06.064Z,81.80
2018-02-12T19:00:33.728Z,81.00
2018-02-12T19:03:01.496Z,81.20
2018-02-12T19:05:29.153Z,81.70
2018-02-12T19:07:56.879Z,81.40
2018-02-12T19:10:24.748Z,81.50
2018-02-12T19:12:52.579Z,81.70
2018-02-12T19:15:20.361Z,81.70
2018-02-12T19:17:48.095Z,81.60
2018-02-12T19:20:16.545Z,81.60
2018-02-12T19:22:44.290Z,81.50
2018-02-12T19:25:12.185Z,81.40
2018-02-12T19:27:39.879Z,81.60
2018-02-12T19:30:07.637Z,80.90
2018-02-12T19:32:35.444Z,80.80
2018-02-12T19:35:03.173Z,80.80
2018-02-12T19:37:31.961Z,80.60
2018-02-12T19:39:59.718Z,80.80
2018-02-12T19:42:27.428Z,81.00
2018-02-12T19:44:55.472Z,81.60
2018-02-12T19:47:23.505Z,81.50
2018-02-12T19:49:52.112Z,80.60
2018-02-12T19:52:20.042Z,80.60
2018-02-12T19:54:47.818Z,80.90
2018-02-12T19:57:16.446Z,81.00
2018-02-12T19:59:44.374Z,80.60
2018-02-12T20:02:13.090Z,81.50
2018-02-12T20:04:41.070Z,81.10
2018-02-12T20:07:08.976Z,80.20
2018-02-12T20:09:37.655Z,81.20
2018-02-12T20:12:06.185Z,81.00
2018-02-12T20:14:34.326Z,81.30
2018-02-12T20:17:03.095Z,81.20
2018-02-12T20:19:31.465Z,81.20
2018-02-12T20:21:59.611Z,81.40
2018-02-12T20:24:27.369Z,81.60
2018-02-12T20:26:55.093Z,81.60
2018-02-12T20:29:23.050Z,81.50
2018-02-12T20:31:50.951Z,81.60
2018-02-12T20:34:19.823Z,81.60
2018-02-12T20:36:48.918Z,81.50
2018-02-12T20:39:17.655Z,82.50
2018-02-12T20:41:45.372Z,81.90
2018-02-12T20:44:13.899Z,82.00
2018-02-12T20:46:41.759Z,82.00
2018-02-12T20:49:09.700Z,82.10
2018-02-12T20:51:37.526Z,81.90
2018-02-12T20:54:05.322Z,81.90
2018-02-12T20:56:33.337Z,82.10
2018-02-12T20:59:01.425Z,82.40
2018-02-12T21:01:29.093Z,82.20
2018-02-12T21:03:56.809Z,82.20
2018-02-12T21:06:24.503Z,83.10
2018-02-12T21:08:52.217Z,82.20
2018-02-12T21:11:20.476Z,82.10
2018-02-12T21:13:49.004Z,82.20
2018-02-12T21:16:16.836Z,82.20
2018-02-12T21:18:44.790Z,82.70
2018-02-12T21:21:14.278Z,81.60
2018-02-12T21:23:42.734Z,81.60
2018-02-12T21:26:10.876Z,81.20
2018-02-12T21:28:39.159Z,80.70
2018-02-12T21:31:06.945Z,80.50
2018-02-12T21:33:34.862Z,80.10
2018-02-12T21:36:03.791Z,79.60
2018-02-12T21:38:31.636Z,79.60
2018-02-12T21:41:00.077Z,80.10
2018-02-12T21:43:29.246Z,80.10
2018-02-12T21:45:57.525Z,80.40
2018-02-12T21:48:25.382Z,80.70
2018-02-12T21:50:53.373Z,80.90
2018-02-12T21:53:21.214Z,81.20
2018-02-12T21:55:51.591Z,81.50
2018-02-12T21:58:20.267Z,81.00
2018-02-12T22:00:49.102Z,80.80
2018-02-12T22:03:17.360Z,80.80
2018-02-12T22:05:45.188Z,80.10
2018-02-12T22:08:13.035Z,80.00
2018-02-12T22:10:40.759Z,80.00
2018-02-12T22:13:08.456Z,80.10
2018-02-12T22:15:36.816Z,80.30
2018-02-12T22:18:04.571Z,81.10
2018-02-12T22:20:32.318Z,80.30
2018-02-12T22:23:00.135Z,80.00
2018-02-12T22:25:27.980Z,79.90
2018-02-12T22:27:55.782Z,79.70
2018-02-12T22:30:23.923Z,79.80
2018-02-12T22:32:51.625Z,79.90
2018-02-12T22:35:21.111Z,79.80
2018-02-12T22:37:49.024Z,79.80
2018-02-12T22:40:17.485Z,79.80
2018-02-12T22:42:45.151Z,79.80
2018-02-12T22:45:13.641Z,80.00
2018-02-12T22:47:42.249Z,79.70
2018-02-12T22:50:09.922Z,79.60
2018-02-12T22:52:37.668Z,79.90
2018-02-12T22:55:05.370Z,79.50
2018-02-12T22:57:33.256Z,79.50
2018-02-12T23:00:00.930Z,79.30
2018-02-12T23:02:28.603Z,79.10
2018-02-12T23:04:57.001Z,79.20
2018-02-12T23:07:24.768Z,79.20
2018-02-12T23:09:52.493Z,79.20
2018-02-12T23:12:20.936Z,79.40
2018-02-12T23:14:48.563Z,79.40
2018-02-12T23:17:17.841Z,79.10
2018-02-12T23:19:46.292Z,79.50
2018-02-12T23:22:13.929Z,79.50
2018-02-12T23:24:41.697Z,79.30
2018-02-12T23:27:17.162Z,79.40
2018-02-12T23:29:44.815Z,79.80
2018-02-12T23:32:12.550Z,80.10
2018-02-12T23:34:40.276Z,80.40
2018-02-12T23:37:08.693Z,80.70
2018-02-12T23:39:36.445Z,80.70
2018-02-12T23:42:04.099Z,80.90
2018-02-12T23:44:31.779Z,80.80
2018-02-12T23:46:59.393Z,81.20
2018-02-12T23:49:27.118Z,81.40
2018-02-12T23:51:54.874Z,82.00
2018-02-12T23:54:26.374Z,81.60
2018-02-12T23:56:54.192Z,81.70
2018-02-12T23:59:21.822Z,81.70
